sensor_id;sensor_type;location;lat;lon;timestamp;P1;durP1;ratioP1;P2;durP2;ratioP2
72586;SDS011;60621;49.576;11.024;2022-07-24T00:00:51;11.48;;;8.13;;
72586;SDS011;60621;49.576;11.024;2022-07-24T00:01:52;10.80;;;8.00;;
72586;SDS011;60621;49.576;11.024;2022-07-24T00:02:54;12.13;;;8.27;;
72586;SDS011;60621;49.576;11.024;2022-07-24T00:03:56;10.77;;;8.43;;
72586;SDS011;60621;49.576;11.024;2022-07-24T00:04:58;11.07;;;8.50;;
72586;SDS011;60621;49.576;11.024;2022-07-24T00:06:02;11.15;;;8.43;;
72586;SDS011;60621;49.576;11.024;2022-07-24T00:07:04;12.48;;;8.52;;
72586;SDS011;60621;49.576;11.024;2022-07-24T00:08:06;11.65;;;8.25;;
72586;SDS011;60621;49.576;11.024;2022-07-24T00:09:07;12.30;;;8.65;;
72586;SDS011;60621;49.576;11.024;2022-07-24T00:10:09;11.25;;;8.13;;
72586;SDS011;60621;49.576;11.024;2022-07-24T00:12:13;11.32;;;7.80;;
72586;SDS011;60621;49.576;11.024;2022-07-24T00:13:15;11.27;;;7.97;;
72586;SDS011;60621;49.576;11.024;2022-07-24T00:14:17;12.45;;;8.35;;
72586;SDS011;60621;49.576;11.024;2022-07-24T00:15:19;11.07;;;8.13;;
72586;SDS011;60621;49.576;11.024;2022-07-24T00:16:21;12.88;;;8.27;;
72586;SDS011;60621;49.576;11.024;2022-07-24T00:17:22;10.77;;;8.02;;
72586;SDS011;60621;49.576;11.024;2022-07-24T00:18:24;10.52;;;7.53;;
72586;SDS011;60621;49.576;11.024;2022-07-24T00:19:25;10.70;;;8.40;;
72586;SDS011;60621;49.576;11.024;2022-07-24T00:20:27;11.40;;;8.20;;
72586;SDS011;60621;49.576;11.024;2022-07-24T00:21:29;11.32;;;8.45;;
72586;SDS011;60621;49.576;11.024;2022-07-24T00:22:31;12.35;;;8.60;;
72586;SDS011;60621;49.576;11.024;2022-07-24T00:23:33;10.75;;;8.05;;
72586;SDS011;60621;49.576;11.024;2022-07-24T00:24:35;12.07;;;9.00;;
72586;SDS011;60621;49.576;11.024;2022-07-24T00:25:36;11.02;;;7.95;;
72586;SDS011;60621;49.576;11.024;2022-07-24T00:26:38;11.95;;;8.68;;
72586;SDS011;60621;49.576;11.024;2022-07-24T00:27:39;11.07;;;8.50;;
72586;SDS011;60621;49.576;11.024;2022-07-24T00:28:41;12.15;;;8.40;;
72586;SDS011;60621;49.576;11.024;2022-07-24T00:29:43;12.77;;;8.40;;
72586;SDS011;60621;49.576;11.024;2022-07-24T00:30:45;12.15;;;8.98;;
72586;SDS011;60621;49.576;11.024;2022-07-24T00:31:46;12.20;;;8.70;;
72586;SDS011;60621;49.576;11.024;2022-07-24T00:32:48;11.38;;;8.57;;
72586;SDS011;60621;49.576;11.024;2022-07-24T00:33:50;10.90;;;8.23;;
72586;SDS011;60621;49.576;11.024;2022-07-24T00:34:51;10.85;;;8.07;;
72586;SDS011;60621;49.576;11.024;2022-07-24T00:35:53;11.55;;;8.45;;
72586;SDS011;60621;49.576;11.024;2022-07-24T00:36:54;13.18;;;8.45;;
72586;SDS011;60621;49.576;11.024;2022-07-24T00:37:56;10.77;;;7.80;;
72586;SDS011;60621;49.576;11.024;2022-07-24T00:38:58;11.88;;;8.77;;
72586;SDS011;60621;49.576;11.024;2022-07-24T00:40:00;13.75;;;8.85;;
72586;SDS011;60621;49.576;11.024;2022-07-24T00:41:02;13.10;;;8.70;;
72586;SDS011;60621;49.576;11.024;2022-07-24T00:42:04;12.15;;;8.55;;
72586;SDS011;60621;49.576;11.024;2022-07-24T00:43:06;12.35;;;9.02;;
72586;SDS011;60621;49.576;11.024;2022-07-24T00:44:11;12.65;;;9.07;;
72586;SDS011;60621;49.576;11.024;2022-07-24T00:45:15;13.45;;;9.10;;
72586;SDS011;60621;49.576;11.024;2022-07-24T00:46:25;11.85;;;8.02;;
72586;SDS011;60621;49.576;11.024;2022-07-24T00:47:26;12.27;;;9.02;;
72586;SDS011;60621;49.576;11.024;2022-07-24T00:48:30;11.63;;;8.50;;
72586;SDS011;60621;49.576;11.024;2022-07-24T00:49:32;13.35;;;9.07;;
72586;SDS011;60621;49.576;11.024;2022-07-24T00:50:34;13.18;;;8.80;;
72586;SDS011;60621;49.576;11.024;2022-07-24T00:51:36;13.05;;;8.60;;
72586;SDS011;60621;49.576;11.024;2022-07-24T00:52:38;11.13;;;8.60;;
72586;SDS011;60621;49.576;11.024;2022-07-24T00:53:40;13.60;;;8.25;;
72586;SDS011;60621;49.576;11.024;2022-07-24T00:54:42;13.73;;;9.07;;
72586;SDS011;60621;49.576;11.024;2022-07-24T00:55:44;13.30;;;8.95;;
72586;SDS011;60621;49.576;11.024;2022-07-24T00:56:47;13.75;;;8.82;;
72586;SDS011;60621;49.576;11.024;2022-07-24T00:57:50;14.10;;;9.05;;
72586;SDS011;60621;49.576;11.024;2022-07-24T00:58:51;11.85;;;8.20;;
72586;SDS011;60621;49.576;11.024;2022-07-24T00:59:53;11.95;;;9.10;;
72586;SDS011;60621;49.576;11.024;2022-07-24T01:00:55;11.77;;;8.32;;
72586;SDS011;60621;49.576;11.024;2022-07-24T01:01:57;12.40;;;8.68;;
72586;SDS011;60621;49.576;11.024;2022-07-24T01:02:58;12.50;;;8.73;;
72586;SDS011;60621;49.576;11.024;2022-07-24T01:04:00;11.45;;;8.48;;
72586;SDS011;60621;49.576;11.024;2022-07-24T01:05:03;13.60;;;8.73;;
72586;SDS011;60621;49.576;11.024;2022-07-24T01:06:06;13.35;;;8.75;;
72586;SDS011;60621;49.576;11.024;2022-07-24T01:07:08;12.30;;;8.93;;
72586;SDS011;60621;49.576;11.024;2022-07-24T01:08:09;11.25;;;8.50;;
72586;SDS011;60621;49.576;11.024;2022-07-24T01:09:14;13.68;;;8.32;;
72586;SDS011;60621;49.576;11.024;2022-07-24T01:10:16;13.30;;;8.45;;
72586;SDS011;60621;49.576;11.024;2022-07-24T01:11:18;13.52;;;8.57;;
72586;SDS011;60621;49.576;11.024;2022-07-24T01:12:21;12.30;;;8.88;;
72586;SDS011;60621;49.576;11.024;2022-07-24T01:13:23;12.93;;;8.55;;
72586;SDS011;60621;49.576;11.024;2022-07-24T01:14:25;13.55;;;8.80;;
72586;SDS011;60621;49.576;11.024;2022-07-24T01:15:27;11.82;;;8.55;;
72586;SDS011;60621;49.576;11.024;2022-07-24T01:16:29;12.50;;;8.57;;
72586;SDS011;60621;49.576;11.024;2022-07-24T01:17:31;13.20;;;8.57;;
72586;SDS011;60621;49.576;11.024;2022-07-24T01:18:34;12.57;;;9.10;;
72586;SDS011;60621;49.576;11.024;2022-07-24T01:19:36;14.30;;;8.75;;
72586;SDS011;60621;49.576;11.024;2022-07-24T01:20:38;13.48;;;8.63;;
72586;SDS011;60621;49.576;11.024;2022-07-24T01:21:47;12.73;;;8.68;;
72586;SDS011;60621;49.576;11.024;2022-07-24T01:22:49;11.32;;;8.75;;
72586;SDS011;60621;49.576;11.024;2022-07-24T01:23:51;13.55;;;8.65;;
72586;SDS011;60621;49.576;11.024;2022-07-24T01:24:53;11.63;;;8.13;;
72586;SDS011;60621;49.576;11.024;2022-07-24T01:25:55;13.07;;;8.80;;
72586;SDS011;60621;49.576;11.024;2022-07-24T01:26:57;12.98;;;9.07;;
72586;SDS011;60621;49.576;11.024;2022-07-24T01:27:59;11.57;;;8.05;;
72586;SDS011;60621;49.576;11.024;2022-07-24T01:29:00;12.27;;;8.23;;
72586;SDS011;60621;49.576;11.024;2022-07-24T01:30:02;12.32;;;8.75;;
72586;SDS011;60621;49.576;11.024;2022-07-24T01:31:04;12.43;;;9.07;;
72586;SDS011;60621;49.576;11.024;2022-07-24T01:32:07;11.20;;;8.63;;
72586;SDS011;60621;49.576;11.024;2022-07-24T01:33:09;11.18;;;8.57;;
72586;SDS011;60621;49.576;11.024;2022-07-24T01:34:10;11.75;;;8.20;;
72586;SDS011;60621;49.576;11.024;2022-07-24T01:35:12;11.20;;;8.50;;
72586;SDS011;60621;49.576;11.024;2022-07-24T01:36:23;11.75;;;8.48;;
72586;SDS011;60621;49.576;11.024;2022-07-24T01:37:25;11.93;;;8.68;;
72586;SDS011;60621;49.576;11.024;2022-07-24T01:38:27;11.15;;;8.60;;
72586;SDS011;60621;49.576;11.024;2022-07-24T01:39:29;13.88;;;8.65;;
72586;SDS011;60621;49.576;11.024;2022-07-24T01:40:31;12.23;;;8.88;;
72586;SDS011;60621;49.576;11.024;2022-07-24T01:41:32;11.10;;;8.48;;
72586;SDS011;60621;49.576;11.024;2022-07-24T01:42:34;12.63;;;9.15;;
72586;SDS011;60621;49.576;11.024;2022-07-24T01:43:36;11.95;;;8.95;;
72586;SDS011;60621;49.576;11.024;2022-07-24T01:44:37;13.85;;;9.15;;
72586;SDS011;60621;49.576;11.024;2022-07-24T01:45:39;13.68;;;9.00;;
72586;SDS011;60621;49.576;11.024;2022-07-24T01:46:40;11.90;;;8.80;;
72586;SDS011;60621;49.576;11.024;2022-07-24T01:47:42;12.68;;;8.75;;
72586;SDS011;60621;49.576;11.024;2022-07-24T01:48:44;12.82;;;8.75;;
72586;SDS011;60621;49.576;11.024;2022-07-24T01:49:46;13.48;;;8.48;;
72586;SDS011;60621;49.576;11.024;2022-07-24T01:50:48;11.95;;;9.10;;
72586;SDS011;60621;49.576;11.024;2022-07-24T01:51:52;11.38;;;8.23;;
72586;SDS011;60621;49.576;11.024;2022-07-24T01:52:54;12.52;;;8.43;;
72586;SDS011;60621;49.576;11.024;2022-07-24T01:53:56;11.90;;;9.18;;
72586;SDS011;60621;49.576;11.024;2022-07-24T01:54:58;12.60;;;8.77;;
72586;SDS011;60621;49.576;11.024;2022-07-24T01:55:59;11.77;;;8.77;;
72586;SDS011;60621;49.576;11.024;2022-07-24T01:57:01;12.80;;;8.75;;
72586;SDS011;60621;49.576;11.024;2022-07-24T01:58:03;11.45;;;8.27;;
72586;SDS011;60621;49.576;11.024;2022-07-24T01:59:04;11.63;;;8.63;;
72586;SDS011;60621;49.576;11.024;2022-07-24T02:00:07;13.35;;;8.57;;
72586;SDS011;60621;49.576;11.024;2022-07-24T02:01:14;12.63;;;8.52;;
72586;SDS011;60621;49.576;11.024;2022-07-24T02:02:16;12.45;;;8.80;;
72586;SDS011;60621;49.576;11.024;2022-07-24T02:03:18;12.30;;;8.23;;
72586;SDS011;60621;49.576;11.024;2022-07-24T02:04:20;12.18;;;8.05;;
72586;SDS011;60621;49.576;11.024;2022-07-24T02:05:22;13.77;;;9.05;;
72586;SDS011;60621;49.576;11.024;2022-07-24T02:06:24;12.57;;;8.32;;
72586;SDS011;60621;49.576;11.024;2022-07-24T02:07:25;11.93;;;8.38;;
72586;SDS011;60621;49.576;11.024;2022-07-24T02:08:27;12.70;;;9.13;;
72586;SDS011;60621;49.576;11.024;2022-07-24T02:09:28;11.90;;;8.52;;
72586;SDS011;60621;49.576;11.024;2022-07-24T02:10:30;11.30;;;8.40;;
72586;SDS011;60621;49.576;11.024;2022-07-24T02:11:32;12.13;;;8.00;;
72586;SDS011;60621;49.576;11.024;2022-07-24T02:12:33;11.48;;;8.30;;
72586;SDS011;60621;49.576;11.024;2022-07-24T02:13:35;12.00;;;8.73;;
72586;SDS011;60621;49.576;11.024;2022-07-24T02:14:39;11.15;;;8.48;;
72586;SDS011;60621;49.576;11.024;2022-07-24T02:15:40;12.63;;;9.20;;
72586;SDS011;60621;49.576;11.024;2022-07-24T02:16:42;13.35;;;8.75;;
72586;SDS011;60621;49.576;11.024;2022-07-24T02:17:47;13.57;;;9.40;;
72586;SDS011;60621;49.576;11.024;2022-07-24T02:18:54;12.73;;;9.10;;
72586;SDS011;60621;49.576;11.024;2022-07-24T02:19:56;13.13;;;9.32;;
72586;SDS011;60621;49.576;11.024;2022-07-24T02:20:58;13.38;;;8.90;;
72586;SDS011;60621;49.576;11.024;2022-07-24T02:22:00;11.90;;;8.60;;
72586;SDS011;60621;49.576;11.024;2022-07-24T02:23:01;12.25;;;8.80;;
72586;SDS011;60621;49.576;11.024;2022-07-24T02:24:03;12.00;;;8.60;;
72586;SDS011;60621;49.576;11.024;2022-07-24T02:25:05;11.77;;;8.70;;
72586;SDS011;60621;49.576;11.024;2022-07-24T02:26:08;13.48;;;8.73;;
72586;SDS011;60621;49.576;11.024;2022-07-24T02:27:09;13.43;;;8.43;;
72586;SDS011;60621;49.576;11.024;2022-07-24T02:28:11;12.98;;;8.40;;
72586;SDS011;60621;49.576;11.024;2022-07-24T02:29:15;11.52;;;8.60;;
72586;SDS011;60621;49.576;11.024;2022-07-24T02:30:19;11.98;;;8.60;;
72586;SDS011;60621;49.576;11.024;2022-07-24T02:31:23;12.13;;;8.18;;
72586;SDS011;60621;49.576;11.024;2022-07-24T02:32:24;12.38;;;8.80;;
72586;SDS011;60621;49.576;11.024;2022-07-24T02:33:26;13.00;;;8.80;;
72586;SDS011;60621;49.576;11.024;2022-07-24T02:34:27;12.48;;;8.60;;
72586;SDS011;60621;49.576;11.024;2022-07-24T02:35:29;12.02;;;8.50;;
72586;SDS011;60621;49.576;11.024;2022-07-24T02:36:30;12.10;;;8.93;;
72586;SDS011;60621;49.576;11.024;2022-07-24T02:37:40;13.45;;;9.07;;
72586;SDS011;60621;49.576;11.024;2022-07-24T02:38:43;12.68;;;8.73;;
72586;SDS011;60621;49.576;11.024;2022-07-24T02:39:44;12.65;;;8.93;;
72586;SDS011;60621;49.576;11.024;2022-07-24T02:40:46;11.63;;;8.70;;
72586;SDS011;60621;49.576;11.024;2022-07-24T02:41:48;12.52;;;8.63;;
72586;SDS011;60621;49.576;11.024;2022-07-24T02:42:49;10.77;;;8.48;;
72586;SDS011;60621;49.576;11.024;2022-07-24T02:43:51;11.38;;;8.50;;
72586;SDS011;60621;49.576;11.024;2022-07-24T02:44:53;13.02;;;8.60;;
72586;SDS011;60621;49.576;11.024;2022-07-24T02:45:55;12.50;;;9.00;;
72586;SDS011;60621;49.576;11.024;2022-07-24T02:46:56;12.68;;;9.05;;
72586;SDS011;60621;49.576;11.024;2022-07-24T02:47:58;13.20;;;9.25;;
72586;SDS011;60621;49.576;11.024;2022-07-24T02:49:00;11.65;;;9.00;;
72586;SDS011;60621;49.576;11.024;2022-07-24T02:50:03;11.95;;;8.80;;
72586;SDS011;60621;49.576;11.024;2022-07-24T02:51:04;12.85;;;8.80;;
72586;SDS011;60621;49.576;11.024;2022-07-24T02:52:06;12.07;;;8.70;;
72586;SDS011;60621;49.576;11.024;2022-07-24T02:53:08;11.70;;;8.52;;
72586;SDS011;60621;49.576;11.024;2022-07-24T02:54:10;12.82;;;8.95;;
72586;SDS011;60621;49.576;11.024;2022-07-24T02:55:12;11.63;;;8.70;;
72586;SDS011;60621;49.576;11.024;2022-07-24T02:56:13;11.93;;;8.65;;
72586;SDS011;60621;49.576;11.024;2022-07-24T02:57:15;13.20;;;9.27;;
72586;SDS011;60621;49.576;11.024;2022-07-24T02:58:17;14.75;;;9.10;;
72586;SDS011;60621;49.576;11.024;2022-07-24T02:59:19;12.63;;;8.57;;
72586;SDS011;60621;49.576;11.024;2022-07-24T03:00:21;13.20;;;9.10;;
72586;SDS011;60621;49.576;11.024;2022-07-24T03:01:23;12.48;;;8.93;;
72586;SDS011;60621;49.576;11.024;2022-07-24T03:02:25;12.63;;;8.38;;
72586;SDS011;60621;49.576;11.024;2022-07-24T03:03:26;12.13;;;8.75;;
72586;SDS011;60621;49.576;11.024;2022-07-24T03:04:28;12.63;;;9.43;;
72586;SDS011;60621;49.576;11.024;2022-07-24T03:05:29;14.45;;;9.23;;
72586;SDS011;60621;49.576;11.024;2022-07-24T03:06:32;12.27;;;8.68;;
72586;SDS011;60621;49.576;11.024;2022-07-24T03:07:34;11.40;;;8.68;;
72586;SDS011;60621;49.576;11.024;2022-07-24T03:08:37;12.75;;;9.50;;
72586;SDS011;60621;49.576;11.024;2022-07-24T03:09:39;12.73;;;8.63;;
72586;SDS011;60621;49.576;11.024;2022-07-24T03:10:41;13.05;;;9.00;;
72586;SDS011;60621;49.576;11.024;2022-07-24T03:11:42;13.52;;;8.80;;
72586;SDS011;60621;49.576;11.024;2022-07-24T03:12:44;12.73;;;9.07;;
72586;SDS011;60621;49.576;11.024;2022-07-24T03:13:45;13.15;;;9.18;;
72586;SDS011;60621;49.576;11.024;2022-07-24T03:14:47;13.77;;;9.18;;
72586;SDS011;60621;49.576;11.024;2022-07-24T03:15:49;12.55;;;8.77;;
72586;SDS011;60621;49.576;11.024;2022-07-24T03:16:51;12.43;;;8.80;;
72586;SDS011;60621;49.576;11.024;2022-07-24T03:17:53;13.38;;;9.70;;
72586;SDS011;60621;49.576;11.024;2022-07-24T03:18:58;12.75;;;9.25;;
72586;SDS011;60621;49.576;11.024;2022-07-24T03:19:59;14.13;;;8.82;;
72586;SDS011;60621;49.576;11.024;2022-07-24T03:21:01;12.40;;;9.40;;
72586;SDS011;60621;49.576;11.024;2022-07-24T03:22:02;12.20;;;9.07;;
72586;SDS011;60621;49.576;11.024;2022-07-24T03:23:04;12.90;;;9.00;;
72586;SDS011;60621;49.576;11.024;2022-07-24T03:24:05;12.90;;;8.70;;
72586;SDS011;60621;49.576;11.024;2022-07-24T03:25:07;13.43;;;9.32;;
72586;SDS011;60621;49.576;11.024;2022-07-24T03:26:09;11.98;;;8.60;;
72586;SDS011;60621;49.576;11.024;2022-07-24T03:27:10;11.60;;;8.40;;
72586;SDS011;60621;49.576;11.024;2022-07-24T03:28:12;13.30;;;8.75;;
72586;SDS011;60621;49.576;11.024;2022-07-24T03:29:14;13.35;;;8.68;;
72586;SDS011;60621;49.576;11.024;2022-07-24T03:30:16;12.48;;;8.98;;
72586;SDS011;60621;49.576;11.024;2022-07-24T03:31:19;13.32;;;9.40;;
72586;SDS011;60621;49.576;11.024;2022-07-24T03:32:20;13.30;;;9.10;;
72586;SDS011;60621;49.576;11.024;2022-07-24T03:33:22;12.40;;;8.88;;
72586;SDS011;60621;49.576;11.024;2022-07-24T03:34:24;13.00;;;9.00;;
72586;SDS011;60621;49.576;11.024;2022-07-24T03:35:25;12.77;;;8.98;;
72586;SDS011;60621;49.576;11.024;2022-07-24T03:36:27;12.77;;;9.10;;
72586;SDS011;60621;49.576;11.024;2022-07-24T03:37:28;13.35;;;9.25;;
72586;SDS011;60621;49.576;11.024;2022-07-24T03:38:30;12.13;;;8.63;;
72586;SDS011;60621;49.576;11.024;2022-07-24T03:39:32;14.18;;;9.02;;
72586;SDS011;60621;49.576;11.024;2022-07-24T03:40:33;14.93;;;9.35;;
72586;SDS011;60621;49.576;11.024;2022-07-24T03:41:35;13.07;;;9.02;;
72586;SDS011;60621;49.576;11.024;2022-07-24T03:42:36;14.73;;;9.40;;
72586;SDS011;60621;49.576;11.024;2022-07-24T03:43:38;12.45;;;9.20;;
72586;SDS011;60621;49.576;11.024;2022-07-24T03:44:40;11.30;;;8.40;;
72586;SDS011;60621;49.576;11.024;2022-07-24T03:45:42;13.00;;;9.15;;
72586;SDS011;60621;49.576;11.024;2022-07-24T03:46:44;12.27;;;8.88;;
72586;SDS011;60621;49.576;11.024;2022-07-24T03:47:46;13.60;;;9.23;;
72586;SDS011;60621;49.576;11.024;2022-07-24T03:48:48;13.75;;;9.35;;
72586;SDS011;60621;49.576;11.024;2022-07-24T03:49:49;13.43;;;9.38;;
72586;SDS011;60621;49.576;11.024;2022-07-24T03:50:51;12.50;;;9.25;;
72586;SDS011;60621;49.576;11.024;2022-07-24T03:51:53;14.57;;;9.43;;
72586;SDS011;60621;49.576;11.024;2022-07-24T03:52:55;12.80;;;9.43;;
72586;SDS011;60621;49.576;11.024;2022-07-24T03:53:57;14.40;;;9.57;;
72586;SDS011;60621;49.576;11.024;2022-07-24T03:54:58;13.57;;;9.43;;
72586;SDS011;60621;49.576;11.024;2022-07-24T03:56:00;13.52;;;9.60;;
72586;SDS011;60621;49.576;11.024;2022-07-24T03:57:06;13.65;;;10.05;;
72586;SDS011;60621;49.576;11.024;2022-07-24T03:58:07;13.38;;;9.75;;
72586;SDS011;60621;49.576;11.024;2022-07-24T03:59:09;12.48;;;9.27;;
72586;SDS011;60621;49.576;11.024;2022-07-24T04:00:11;14.45;;;9.73;;
72586;SDS011;60621;49.576;11.024;2022-07-24T04:01:13;14.02;;;9.98;;
72586;SDS011;60621;49.576;11.024;2022-07-24T04:02:15;12.68;;;9.32;;
72586;SDS011;60621;49.576;11.024;2022-07-24T04:03:16;13.70;;;9.70;;
72586;SDS011;60621;49.576;11.024;2022-07-24T04:04:19;14.77;;;10.02;;
72586;SDS011;60621;49.576;11.024;2022-07-24T04:05:21;14.40;;;10.07;;
72586;SDS011;60621;49.576;11.024;2022-07-24T04:06:22;14.60;;;9.82;;
72586;SDS011;60621;49.576;11.024;2022-07-24T04:07:24;14.18;;;9.90;;
72586;SDS011;60621;49.576;11.024;2022-07-24T04:08:26;12.95;;;9.13;;
72586;SDS011;60621;49.576;11.024;2022-07-24T04:09:28;12.60;;;9.10;;
72586;SDS011;60621;49.576;11.024;2022-07-24T04:10:32;12.63;;;9.43;;
72586;SDS011;60621;49.576;11.024;2022-07-24T04:11:34;12.93;;;9.23;;
72586;SDS011;60621;49.576;11.024;2022-07-24T04:12:36;13.70;;;9.73;;
72586;SDS011;60621;49.576;11.024;2022-07-24T04:13:37;12.50;;;9.02;;
72586;SDS011;60621;49.576;11.024;2022-07-24T04:14:43;13.68;;;9.38;;
72586;SDS011;60621;49.576;11.024;2022-07-24T04:15:45;15.38;;;9.73;;
72586;SDS011;60621;49.576;11.024;2022-07-24T04:16:47;13.98;;;9.27;;
72586;SDS011;60621;49.576;11.024;2022-07-24T04:17:49;13.93;;;9.63;;
72586;SDS011;60621;49.576;11.024;2022-07-24T04:18:50;12.82;;;9.23;;
72586;SDS011;60621;49.576;11.024;2022-07-24T04:19:52;14.88;;;9.55;;
72586;SDS011;60621;49.576;11.024;2022-07-24T04:20:54;13.60;;;9.57;;
72586;SDS011;60621;49.576;11.024;2022-07-24T04:21:56;14.20;;;9.32;;
72586;SDS011;60621;49.576;11.024;2022-07-24T04:22:58;14.40;;;10.10;;
72586;SDS011;60621;49.576;11.024;2022-07-24T04:24:01;13.82;;;9.52;;
72586;SDS011;60621;49.576;11.024;2022-07-24T04:25:03;13.63;;;9.65;;
72586;SDS011;60621;49.576;11.024;2022-07-24T04:26:06;13.57;;;9.05;;
72586;SDS011;60621;49.576;11.024;2022-07-24T04:27:08;12.10;;;9.23;;
72586;SDS011;60621;49.576;11.024;2022-07-24T04:28:10;13.60;;;9.18;;
72586;SDS011;60621;49.576;11.024;2022-07-24T04:29:11;13.93;;;9.98;;
72586;SDS011;60621;49.576;11.024;2022-07-24T04:30:13;13.52;;;9.52;;
72586;SDS011;60621;49.576;11.024;2022-07-24T04:31:15;13.85;;;9.30;;
72586;SDS011;60621;49.576;11.024;2022-07-24T04:32:17;12.68;;;9.00;;
72586;SDS011;60621;49.576;11.024;2022-07-24T04:33:19;14.60;;;9.65;;
72586;SDS011;60621;49.576;11.024;2022-07-24T04:34:20;12.93;;;9.30;;
72586;SDS011;60621;49.576;11.024;2022-07-24T04:35:22;15.52;;;9.73;;
72586;SDS011;60621;49.576;11.024;2022-07-24T04:36:24;14.80;;;9.70;;
72586;SDS011;60621;49.576;11.024;2022-07-24T04:37:26;13.88;;;10.27;;
72586;SDS011;60621;49.576;11.024;2022-07-24T04:38:28;14.70;;;10.65;;
72586;SDS011;60621;49.576;11.024;2022-07-24T04:39:31;13.80;;;9.73;;
72586;SDS011;60621;49.576;11.024;2022-07-24T04:40:33;14.95;;;10.10;;
72586;SDS011;60621;49.576;11.024;2022-07-24T04:41:34;15.00;;;10.05;;
72586;SDS011;60621;49.576;11.024;2022-07-24T04:42:36;14.35;;;9.85;;
72586;SDS011;60621;49.576;11.024;2022-07-24T04:43:38;13.48;;;10.05;;
72586;SDS011;60621;49.576;11.024;2022-07-24T04:44:40;13.98;;;10.32;;
72586;SDS011;60621;49.576;11.024;2022-07-24T04:45:42;14.55;;;10.15;;
72586;SDS011;60621;49.576;11.024;2022-07-24T04:46:43;13.63;;;9.98;;
72586;SDS011;60621;49.576;11.024;2022-07-24T04:47:45;14.65;;;10.20;;
72586;SDS011;60621;49.576;11.024;2022-07-24T04:48:46;14.23;;;10.60;;
72586;SDS011;60621;49.576;11.024;2022-07-24T04:49:48;13.25;;;9.93;;
72586;SDS011;60621;49.576;11.024;2022-07-24T04:50:50;14.43;;;10.25;;
72586;SDS011;60621;49.576;11.024;2022-07-24T04:51:52;14.15;;;10.90;;
72586;SDS011;60621;49.576;11.024;2022-07-24T04:52:54;15.02;;;10.43;;
72586;SDS011;60621;49.576;11.024;2022-07-24T04:53:55;14.82;;;10.40;;
72586;SDS011;60621;49.576;11.024;2022-07-24T04:54:57;15.48;;;10.90;;
72586;SDS011;60621;49.576;11.024;2022-07-24T04:55:58;14.30;;;10.43;;
72586;SDS011;60621;49.576;11.024;2022-07-24T04:57:00;14.65;;;10.02;;
72586;SDS011;60621;49.576;11.024;2022-07-24T04:58:01;13.75;;;10.05;;
72586;SDS011;60621;49.576;11.024;2022-07-24T04:59:03;14.48;;;10.15;;
72586;SDS011;60621;49.576;11.024;2022-07-24T05:00:06;14.75;;;10.20;;
72586;SDS011;60621;49.576;11.024;2022-07-24T05:01:10;15.40;;;10.20;;
72586;SDS011;60621;49.576;11.024;2022-07-24T05:02:12;14.40;;;10.75;;
72586;SDS011;60621;49.576;11.024;2022-07-24T05:03:14;15.10;;;10.88;;
72586;SDS011;60621;49.576;11.024;2022-07-24T05:04:15;14.13;;;10.68;;
72586;SDS011;60621;49.576;11.024;2022-07-24T05:05:17;13.90;;;11.02;;
72586;SDS011;60621;49.576;11.024;2022-07-24T05:06:19;13.70;;;10.55;;
72586;SDS011;60621;49.576;11.024;2022-07-24T05:07:21;14.80;;;10.60;;
72586;SDS011;60621;49.576;11.024;2022-07-24T05:08:22;15.07;;;10.48;;
72586;SDS011;60621;49.576;11.024;2022-07-24T05:09:24;13.77;;;10.00;;
72586;SDS011;60621;49.576;11.024;2022-07-24T05:10:25;13.52;;;9.68;;
72586;SDS011;60621;49.576;11.024;2022-07-24T05:11:27;13.82;;;10.07;;
72586;SDS011;60621;49.576;11.024;2022-07-24T05:12:29;14.88;;;10.30;;
72586;SDS011;60621;49.576;11.024;2022-07-24T05:13:30;14.57;;;10.50;;
72586;SDS011;60621;49.576;11.024;2022-07-24T05:14:32;13.95;;;10.52;;
72586;SDS011;60621;49.576;11.024;2022-07-24T05:15:34;15.10;;;10.77;;
72586;SDS011;60621;49.576;11.024;2022-07-24T05:16:35;14.82;;;10.18;;
72586;SDS011;60621;49.576;11.024;2022-07-24T05:17:37;13.77;;;10.00;;
72586;SDS011;60621;49.576;11.024;2022-07-24T05:18:39;14.80;;;10.45;;
72586;SDS011;60621;49.576;11.024;2022-07-24T05:19:41;13.60;;;10.45;;
72586;SDS011;60621;49.576;11.024;2022-07-24T05:20:42;14.68;;;9.82;;
72586;SDS011;60621;49.576;11.024;2022-07-24T05:21:44;12.95;;;9.38;;
72586;SDS011;60621;49.576;11.024;2022-07-24T05:22:45;12.63;;;9.13;;
72586;SDS011;60621;49.576;11.024;2022-07-24T05:23:47;14.77;;;10.23;;
72586;SDS011;60621;49.576;11.024;2022-07-24T05:24:49;15.25;;;9.55;;
72586;SDS011;60621;49.576;11.024;2022-07-24T05:25:50;13.25;;;9.80;;
72586;SDS011;60621;49.576;11.024;2022-07-24T05:26:52;14.80;;;10.00;;
72586;SDS011;60621;49.576;11.024;2022-07-24T05:27:54;14.27;;;9.90;;
72586;SDS011;60621;49.576;11.024;2022-07-24T05:28:55;14.13;;;10.38;;
72586;SDS011;60621;49.576;11.024;2022-07-24T05:29:57;14.60;;;9.65;;
72586;SDS011;60621;49.576;11.024;2022-07-24T05:30:58;12.98;;;9.95;;
72586;SDS011;60621;49.576;11.024;2022-07-24T05:32:01;15.43;;;10.50;;
72586;SDS011;60621;49.576;11.024;2022-07-24T05:33:02;13.90;;;10.48;;
72586;SDS011;60621;49.576;11.024;2022-07-24T05:34:04;14.23;;;10.00;;
72586;SDS011;60621;49.576;11.024;2022-07-24T05:35:05;13.82;;;9.73;;
72586;SDS011;60621;49.576;11.024;2022-07-24T05:36:07;13.45;;;10.07;;
72586;SDS011;60621;49.576;11.024;2022-07-24T05:37:09;13.40;;;9.70;;
72586;SDS011;60621;49.576;11.024;2022-07-24T05:38:11;14.48;;;10.25;;
72586;SDS011;60621;49.576;11.024;2022-07-24T05:39:14;13.82;;;10.13;;
72586;SDS011;60621;49.576;11.024;2022-07-24T05:40:15;15.25;;;10.05;;
72586;SDS011;60621;49.576;11.024;2022-07-24T05:41:17;12.85;;;9.75;;
72586;SDS011;60621;49.576;11.024;2022-07-24T05:42:19;13.60;;;10.07;;
72586;SDS011;60621;49.576;11.024;2022-07-24T05:43:20;13.52;;;10.27;;
72586;SDS011;60621;49.576;11.024;2022-07-24T05:44:22;14.38;;;10.25;;
72586;SDS011;60621;49.576;11.024;2022-07-24T05:45:24;14.00;;;10.27;;
72586;SDS011;60621;49.576;11.024;2022-07-24T05:46:25;13.40;;;10.27;;
72586;SDS011;60621;49.576;11.024;2022-07-24T05:47:27;12.90;;;9.77;;
72586;SDS011;60621;49.576;11.024;2022-07-24T05:48:28;13.07;;;9.75;;
72586;SDS011;60621;49.576;11.024;2022-07-24T05:49:30;13.38;;;10.20;;
72586;SDS011;60621;49.576;11.024;2022-07-24T05:50:32;15.23;;;10.32;;
72586;SDS011;60621;49.576;11.024;2022-07-24T05:51:33;11.57;;;8.93;;
72586;SDS011;60621;49.576;11.024;2022-07-24T05:52:35;12.73;;;9.57;;
72586;SDS011;60621;49.576;11.024;2022-07-24T05:53:37;12.38;;;8.95;;
72586;SDS011;60621;49.576;11.024;2022-07-24T05:54:39;12.65;;;9.70;;
72586;SDS011;60621;49.576;11.024;2022-07-24T05:55:40;13.43;;;10.10;;
72586;SDS011;60621;49.576;11.024;2022-07-24T05:56:42;12.85;;;9.88;;
72586;SDS011;60621;49.576;11.024;2022-07-24T05:57:44;13.93;;;10.40;;
72586;SDS011;60621;49.576;11.024;2022-07-24T05:58:47;13.65;;;9.85;;
72586;SDS011;60621;49.576;11.024;2022-07-24T05:59:51;12.73;;;9.93;;
72586;SDS011;60621;49.576;11.024;2022-07-24T06:00:53;12.85;;;10.05;;
72586;SDS011;60621;49.576;11.024;2022-07-24T06:01:54;13.32;;;9.88;;
72586;SDS011;60621;49.576;11.024;2022-07-24T06:02:56;14.70;;;9.80;;